createdAt,value
2018-08-28T00:01:31.399Z,93.10
2018-08-28T00:03:59.926Z,93.10
2018-08-28T00:06:28.471Z,93.10
2018-08-28T00:08:57.025Z,93.10
2018-08-28T00:11:25.594Z,93.20
2018-08-28T00:13:54.684Z,93.30
2018-08-28T00:16:23.171Z,93.40
2018-08-28T00:18:51.689Z,93.50
2018-08-28T00:21:20.257Z,93.40
2018-08-28T00:23:48.761Z,93.50
2018-08-28T00:26:17.280Z,93.50
2018-08-28T00:28:46.032Z,93.60
2018-08-28T00:31:14.571Z,93.60
2018-08-28T00:33:43.113Z,93.70
2018-08-28T00:36:11.633Z,93.70
2018-08-28T00:38:40.160Z,93.80
2018-08-28T00:41:08.710Z,93.90
2018-08-28T00:43:37.190Z,93.90
2018-08-28T00:46:05.650Z,94.00
2018-08-28T00:48:34.820Z,93.90
2018-08-28T00:51:03.273Z,94.00
2018-08-28T00:53:31.705Z,94.10
2018-08-28T00:56:00.207Z,94.20
2018-08-28T00:58:28.756Z,94.30
2018-08-28T01:00:57.261Z,94.50
2018-08-28T01:03:25.703Z,94.60
2018-08-28T01:05:54.241Z,94.60
2018-08-28T01:08:22.776Z,94.60
2018-08-28T01:10:51.288Z,94.70
2018-08-28T01:13:19.752Z,94.80
2018-08-28T01:15:48.234Z,94.90
2018-08-28T01:18:16.676Z,94.90
2018-08-28T01:20:45.155Z,95.00
2018-08-28T01:23:13.629Z,95.10
2018-08-28T01:25:42.075Z,95.20
2018-08-28T01:28:11.359Z,95.30
2018-08-28T01:30:40.468Z,95.30
2018-08-28T01:33:08.890Z,95.40
2018-08-28T01:35:37.365Z,95.50
2018-08-28T01:38:05.868Z,95.60
2018-08-28T01:40:34.480Z,95.60
2018-08-28T01:43:07.200Z,95.60
2018-08-28T01:45:35.742Z,95.70
2018-08-28T01:48:04.227Z,95.70
2018-08-28T01:50:32.777Z,95.80
2018-08-28T01:53:01.253Z,95.90
2018-08-28T01:55:29.756Z,96.00
2018-08-28T01:57:58.934Z,96.00
2018-08-28T02:00:27.425Z,96.10
2018-08-28T02:02:55.933Z,96.10
2018-08-28T02:05:24.457Z,96.20
2018-08-28T02:07:52.922Z,96.20
2018-08-28T02:10:21.425Z,96.30
2018-08-28T02:12:52.764Z,96.30
2018-08-28T02:15:21.309Z,96.40
2018-08-28T02:17:49.860Z,96.40
2018-08-28T02:20:19.949Z,96.40
2018-08-28T02:22:48.460Z,96.50
2018-08-28T02:25:16.954Z,96.60
2018-08-28T02:27:45.511Z,96.70
2018-08-28T02:30:14.532Z,96.60
2018-08-28T02:32:43.045Z,96.60
2018-08-28T02:35:11.509Z,96.80
2018-08-28T02:37:40.838Z,96.80
2018-08-28T02:40:09.332Z,96.90
2018-08-28T02:42:37.885Z,96.90
2018-08-28T02:45:06.738Z,97.20
2018-08-28T02:47:35.251Z,97.00
2018-08-28T02:50:03.711Z,97.10
2018-08-28T02:52:32.256Z,97.20
2018-08-28T02:55:00.740Z,97.30
2018-08-28T02:57:29.305Z,97.30
2018-08-28T02:59:57.826Z,97.40
2018-08-28T03:02:27.212Z,97.50
2018-08-28T03:04:55.673Z,97.50
2018-08-28T03:07:24.828Z,97.60
2018-08-28T03:09:53.363Z,97.60
2018-08-28T03:12:21.908Z,97.70
2018-08-28T03:14:50.388Z,97.80
2018-08-28T03:17:18.906Z,97.90
2018-08-28T03:19:47.434Z,97.90
2018-08-28T03:22:16.057Z,98.00
2018-08-28T03:24:44.583Z,98.00
2018-08-28T03:27:13.098Z,98.10
2018-08-28T03:29:41.587Z,98.10
2018-08-28T03:32:10.068Z,98.20
2018-08-28T03:34:38.582Z,98.30
2018-08-28T03:37:07.099Z,98.60
2018-08-28T03:39:35.581Z,98.40
2018-08-28T03:42:04.128Z,98.40
2018-08-28T03:44:32.583Z,98.50
2018-08-28T03:47:01.347Z,98.50
2018-08-28T03:49:29.918Z,98.70
2018-08-28T03:51:59.128Z,98.70
2018-08-28T03:54:27.737Z,98.70
2018-08-28T03:56:56.211Z,98.80
2018-08-28T03:59:24.707Z,98.80
2018-08-28T04:01:53.209Z,98.90
2018-08-28T04:04:21.693Z,98.90
2018-08-28T04:06:50.212Z,99.00
2018-08-28T04:09:19.449Z,99.00
2018-08-28T04:11:48.000Z,99.00
2018-08-28T04:14:16.671Z,99.10
2018-08-28T04:16:45.269Z,99.10
2018-08-28T04:19:13.733Z,99.20
2018-08-28T04:21:42.898Z,99.20
2018-08-28T04:24:11.484Z,99.30
2018-08-28T04:26:39.955Z,99.30
2018-08-28T04:29:08.493Z,99.30
2018-08-28T04:31:37.028Z,99.40
2018-08-28T04:34:05.503Z,99.40
2018-08-28T04:36:34.439Z,99.50
2018-08-28T04:39:02.992Z,99.50
2018-08-28T04:41:31.529Z,99.60
2018-08-28T04:44:00.082Z,99.60
2018-08-28T04:46:29.791Z,99.70
2018-08-28T04:48:58.309Z,99.70
2018-08-28T04:51:27.250Z,99.70
2018-08-28T04:53:55.749Z,99.80
2018-08-28T04:56:24.280Z,99.90
2018-08-28T04:58:52.816Z,99.90
2018-08-28T05:01:21.276Z,99.90
2018-08-28T05:03:49.760Z,99.90
2018-08-28T05:06:18.265Z,99.90
2018-08-28T05:08:46.800Z,99.90
2018-08-28T05:11:15.289Z,99.90
2018-08-28T05:13:43.811Z,99.90
2018-08-28T05:16:12.285Z,99.90
2018-08-28T05:18:40.815Z,99.90
2018-08-28T05:21:09.316Z,99.90
2018-08-28T05:23:37.933Z,99.90
2018-08-28T05:26:06.498Z,99.90
2018-08-28T05:28:35.058Z,99.90
2018-08-28T05:31:03.593Z,99.90
2018-08-28T05:33:32.741Z,99.90
2018-08-28T05:36:01.406Z,99.90
2018-08-28T05:38:29.898Z,99.90
2018-08-28T05:40:58.431Z,99.90
2018-08-28T05:43:26.953Z,99.90
2018-08-28T05:45:55.416Z,99.90
2018-08-28T05:48:23.896Z,99.90
2018-08-28T05:50:52.974Z,99.90
2018-08-28T05:53:22.572Z,99.90
2018-08-28T05:55:51.365Z,99.90
2018-08-28T05:58:19.843Z,99.90
2018-08-28T06:00:48.390Z,99.90
2018-08-28T06:03:17.020Z,99.90
2018-08-28T06:05:45.778Z,99.90
2018-08-28T06:08:14.875Z,99.90
2018-08-28T06:10:43.432Z,99.90
2018-08-28T06:13:11.961Z,99.90
2018-08-28T06:15:40.552Z,99.90
2018-08-28T06:18:09.143Z,99.90
2018-08-28T06:20:37.711Z,99.90
2018-08-28T06:23:06.355Z,99.90
2018-08-28T06:25:34.889Z,99.90
2018-08-28T06:28:03.437Z,99.90
2018-08-28T06:30:31.968Z,99.90
2018-08-28T06:33:00.524Z,99.90
2018-08-28T06:35:29.114Z,99.90
2018-08-28T06:37:57.633Z,99.90
2018-08-28T06:40:26.267Z,99.90
2018-08-28T06:42:54.860Z,99.90
2018-08-28T06:45:23.393Z,99.90
2018-08-28T06:47:51.987Z,99.90
2018-08-28T06:50:20.553Z,99.90
2018-08-28T06:52:49.065Z,99.90
2018-08-28T06:55:17.587Z,99.90
2018-08-28T06:57:46.214Z,99.90
2018-08-28T07:00:14.905Z,99.90
2018-08-28T07:02:44.663Z,99.90
2018-08-28T07:05:13.228Z,99.90
2018-08-28T07:07:41.781Z,99.90
2018-08-28T07:10:10.415Z,99.90
2018-08-28T07:12:39.052Z,99.90
2018-08-28T07:15:07.588Z,99.90
2018-08-28T07:17:36.122Z,99.90
2018-08-28T07:20:04.885Z,99.90
2018-08-28T07:22:33.486Z,99.90
2018-08-28T07:25:02.149Z,99.90
2018-08-28T07:27:30.698Z,99.90
2018-08-28T07:29:59.206Z,99.90
2018-08-28T07:32:27.782Z,99.90
2018-08-28T07:34:56.414Z,99.90
2018-08-28T07:37:24.969Z,99.90
2018-08-28T07:39:53.511Z,99.90
2018-08-28T07:42:22.119Z,99.90
2018-08-28T07:44:50.721Z,99.90
2018-08-28T07:47:19.402Z,99.90
2018-08-28T07:49:47.989Z,99.90
2018-08-28T07:52:16.530Z,99.90
2018-08-28T07:54:45.445Z,99.90
2018-08-28T07:57:14.000Z,99.90
2018-08-28T07:59:42.461Z,99.90
2018-08-28T08:02:11.064Z,99.90
2018-08-28T08:04:40.357Z,99.90
2018-08-28T08:07:08.822Z,99.90
2018-08-28T08:09:37.288Z,99.90
2018-08-28T08:12:05.902Z,99.90
2018-08-28T08:14:34.568Z,99.90
2018-08-28T08:17:03.086Z,99.90
2018-08-28T08:19:31.588Z,99.90
2018-08-28T08:22:00.133Z,99.90
2018-08-28T08:24:28.633Z,99.90
2018-08-28T08:26:57.156Z,99.90
2018-08-28T08:29:25.780Z,99.90
2018-08-28T08:31:54.319Z,99.90
2018-08-28T08:34:22.788Z,99.90
2018-08-28T08:36:51.443Z,99.90
2018-08-28T08:39:19.986Z,99.90
2018-08-28T08:41:48.550Z,99.90
2018-08-28T08:44:17.072Z,99.90
2018-08-28T08:46:45.605Z,99.60
2018-08-28T08:49:14.182Z,99.20
2018-08-28T08:51:42.728Z,98.20
2018-08-28T08:54:11.313Z,97.90
2018-08-28T08:56:39.884Z,98.30
2018-08-28T08:59:08.489Z,97.10
2018-08-28T09:01:37.034Z,96.60
2018-08-28T09:04:05.896Z,97.10
2018-08-28T09:06:34.506Z,97.60
2018-08-28T09:09:03.127Z,97.00
2018-08-28T09:11:31.637Z,96.90
2018-08-28T09:14:00.234Z,99.00
2018-08-28T09:16:28.823Z,97.40
2018-08-28T09:18:57.346Z,95.30
2018-08-28T09:21:25.917Z,95.60
2018-08-28T09:23:54.496Z,94.60
2018-08-28T09:26:23.048Z,96.30
2018-08-28T09:28:51.630Z,96.00
2018-08-28T09:31:21.069Z,94.00
2018-08-28T09:33:49.638Z,93.90
2018-08-28T09:36:18.738Z,99.90
2018-08-28T09:38:47.364Z,97.80
2018-08-28T09:41:16.235Z,99.30
2018-08-28T09:43:44.800Z,97.20
2018-08-28T09:46:13.428Z,96.50
2018-08-28T09:48:42.980Z,92.20
2018-08-28T09:51:11.575Z,92.40
2018-08-28T09:53:40.148Z,90.70
2018-08-28T09:56:08.751Z,79.70
2018-08-28T09:58:37.393Z,72.80
2018-08-28T10:01:11.296Z,71.80
2018-08-28T10:03:40.005Z,70.60
2018-08-28T10:06:08.700Z,71.20
2018-08-28T10:08:37.504Z,72.10
2018-08-28T10:11:06.355Z,73.70
2018-08-28T10:13:34.796Z,72.50
2018-08-28T10:16:03.306Z,72.60
2018-08-28T10:18:31.863Z,72.90
2018-08-28T10:21:00.397Z,72.70
2018-08-28T10:23:28.964Z,73.00
2018-08-28T10:25:57.506Z,72.40
2018-08-28T10:28:26.064Z,72.80
2018-08-28T10:30:54.666Z,75.20
2018-08-28T10:33:23.126Z,82.40
2018-08-28T10:35:51.744Z,76.00
2018-08-28T10:38:20.322Z,74.40
2018-08-28T10:40:48.879Z,76.00
2018-08-28T10:43:17.569Z,78.20
2018-08-28T10:45:46.151Z,73.50
2018-08-28T10:48:14.732Z,69.60
2018-08-28T10:50:43.231Z,68.90
2018-08-28T10:53:11.725Z,68.70
2018-08-28T10:55:40.771Z,68.00
2018-08-28T10:58:09.474Z,68.90
2018-08-28T11:00:38.068Z,69.90
2018-08-28T11:03:06.714Z,69.70
2018-08-28T11:05:35.257Z,68.70
2018-08-28T11:08:03.925Z,67.80
2018-08-28T11:10:32.524Z,67.20
2018-08-28T11:13:01.040Z,66.70
2018-08-28T11:15:29.586Z,66.60
2018-08-28T11:17:58.097Z,65.70
2018-08-28T11:20:26.759Z,66.10
2018-08-28T11:22:55.318Z,65.80
2018-08-28T11:25:23.782Z,65.30
2018-08-28T11:27:52.934Z,65.50
2018-08-28T11:30:21.489Z,65.60
2018-08-28T11:32:50.620Z,66.00
2018-08-28T11:35:19.134Z,66.50
2018-08-28T11:37:47.680Z,66.50
2018-08-28T11:40:16.215Z,66.70
2018-08-28T11:42:44.741Z,66.60
2018-08-28T11:45:13.295Z,66.60
2018-08-28T11:47:41.926Z,67.00
2018-08-28T11:50:10.900Z,67.00
2018-08-28T11:52:39.533Z,68.20
2018-08-28T11:55:12.015Z,68.50
2018-08-28T11:57:47.319Z,68.60
2018-08-28T12:00:16.234Z,68.50
2018-08-28T12:02:44.756Z,68.50
2018-08-28T12:05:13.476Z,68.00
2018-08-28T12:07:41.993Z,68.00
2018-08-28T12:10:10.973Z,68.20
2018-08-28T12:12:39.946Z,68.30
2018-08-28T12:15:09.201Z,67.40
2018-08-28T12:17:38.845Z,66.40
2018-08-28T12:20:08.528Z,66.90
2018-08-28T12:22:37.185Z,66.20
2018-08-28T12:25:06.023Z,66.30
2018-08-28T12:27:34.646Z,66.00
2018-08-28T12:30:03.212Z,66.00
2018-08-28T12:32:32.954Z,66.10
2018-08-28T12:35:01.739Z,67.20
2018-08-28T12:37:30.564Z,68.00
2018-08-28T12:39:59.171Z,68.20
2018-08-28T12:42:27.753Z,68.10
2018-08-28T12:44:56.335Z,68.00
2018-08-28T12:47:24.899Z,69.00
2018-08-28T12:49:53.360Z,68.80
2018-08-28T12:52:21.872Z,68.90
2018-08-28T12:54:50.317Z,69.10
2018-08-28T12:57:18.890Z,69.60
2018-08-28T12:59:47.354Z,69.30
2018-08-28T13:02:16.810Z,69.20
2018-08-28T13:04:45.404Z,69.50
2018-08-28T13:07:13.910Z,69.70
2018-08-28T13:09:42.597Z,69.90
2018-08-28T13:12:11.189Z,70.80
2018-08-28T13:14:40.716Z,71.00
2018-08-28T13:17:09.373Z,71.50
2018-08-28T13:19:37.916Z,70.30
2018-08-28T13:22:07.291Z,70.20
2018-08-28T13:24:36.155Z,70.50
2018-08-28T13:27:04.957Z,69.50
2018-08-28T13:29:33.505Z,69.10
2018-08-28T13:32:02.817Z,68.30
2018-08-28T13:34:31.399Z,67.60
2018-08-28T13:37:00.038Z,67.20
2018-08-28T13:39:29.478Z,66.60
2018-08-28T13:41:57.998Z,66.50
2018-08-28T13:44:27.314Z,66.70
2018-08-28T13:46:56.507Z,66.60
2018-08-28T13:49:25.076Z,66.80
2018-08-28T13:51:53.705Z,66.40
2018-08-28T13:54:23.272Z,66.20
2018-08-28T13:56:52.014Z,66.00
2018-08-28T13:59:21.076Z,66.40
2018-08-28T14:01:49.807Z,65.90
2018-08-28T14:04:19.417Z,66.20
2018-08-28T14:06:49.127Z,66.30
2018-08-28T14:09:18.178Z,66.30
2018-08-28T14:11:46.784Z,66.30
2018-08-28T14:14:16.161Z,66.10
2018-08-28T14:16:44.991Z,65.30
2018-08-28T14:19:13.633Z,64.80
2018-08-28T14:21:42.632Z,64.90
2018-08-28T14:24:11.201Z,64.90
2018-08-28T14:26:40.035Z,65.20
2018-08-28T14:29:08.724Z,65.70
2018-08-28T14:31:37.556Z,65.80
2018-08-28T14:34:06.280Z,65.80
2018-08-28T14:36:35.055Z,65.60
2018-08-28T14:39:04.510Z,65.30
2018-08-28T14:41:33.859Z,65.40
2018-08-28T14:44:02.428Z,65.20
2018-08-28T14:46:30.933Z,65.40
2018-08-28T14:48:59.760Z,66.20
2018-08-28T14:51:28.571Z,65.80
2018-08-28T14:53:57.429Z,65.80
2018-08-28T14:56:26.323Z,66.10
2018-08-28T14:58:56.079Z,66.20
2018-08-28T15:01:24.699Z,66.80
2018-08-28T15:03:53.566Z,66.80
2018-08-28T15:06:22.756Z,67.00
2018-08-28T15:08:51.896Z,67.00
2018-08-28T15:11:20.783Z,67.60
2018-08-28T15:13:49.575Z,67.40
2018-08-28T15:16:18.614Z,67.40
2018-08-28T15:18:47.168Z,67.80
2018-08-28T15:21:16.192Z,67.40
2018-08-28T15:23:45.719Z,67.30
2018-08-28T15:26:14.505Z,68.00
2018-08-28T15:28:44.115Z,68.60
2018-08-28T15:31:12.685Z,68.80
2018-08-28T15:33:41.812Z,69.20
2018-08-28T15:36:10.846Z,69.00
2018-08-28T15:38:39.702Z,68.30
2018-08-28T15:41:08.545Z,68.60
2018-08-28T15:43:37.167Z,68.50
2018-08-28T15:46:06.038Z,68.60
2018-08-28T15:48:35.943Z,68.50
2018-08-28T15:51:04.885Z,68.80
2018-08-28T15:53:34.240Z,68.90
2018-08-28T15:56:02.877Z,69.20
2018-08-28T15:58:31.410Z,69.20
2018-08-28T16:01:00.244Z,69.10
2018-08-28T16:03:30.336Z,69.00
2018-08-28T16:05:59.572Z,69.10
2018-08-28T16:08:34.993Z,69.10
2018-08-28T16:11:04.181Z,69.40
2018-08-28T16:13:32.999Z,69.90
2018-08-28T16:16:01.916Z,69.70
2018-08-28T16:18:30.804Z,70.20
2018-08-28T16:20:59.816Z,70.40
2018-08-28T16:23:32.789Z,70.00
2018-08-28T16:26:02.474Z,69.70
2018-08-28T16:28:31.599Z,70.10
2018-08-28T16:31:00.535Z,70.20
2018-08-28T16:33:30.155Z,70.30
2018-08-28T16:35:59.442Z,70.20
2018-08-28T16:38:28.946Z,70.40
2018-08-28T16:40:58.066Z,70.60
2018-08-28T16:43:27.263Z,70.50
2018-08-28T16:45:56.002Z,70.90
2018-08-28T16:48:26.181Z,70.90
2018-08-28T16:50:55.038Z,71.20
2018-08-28T16:53:24.163Z,71.10
2018-08-28T16:55:55.711Z,71.30
2018-08-28T16:58:24.527Z,71.40
2018-08-28T17:00:53.059Z,71.60
2018-08-28T17:03:21.810Z,71.80
2018-08-28T17:05:50.378Z,71.90
2018-08-28T17:08:19.511Z,71.80
2018-08-28T17:10:48.554Z,71.80
2018-08-28T17:13:18.099Z,71.90
2018-08-28T17:15:47.094Z,71.70
2018-08-28T17:18:15.577Z,71.80
2018-08-28T17:20:44.286Z,71.70
2018-08-28T17:23:12.949Z,72.00
2018-08-28T17:25:41.674Z,72.00
2018-08-28T17:28:10.402Z,72.10
2018-08-28T17:30:39.172Z,72.10
2018-08-28T17:33:08.409Z,72.30
2018-08-28T17:35:37.298Z,72.40
2018-08-28T17:38:07.540Z,72.60
2018-08-28T17:40:36.580Z,72.50
2018-08-28T17:43:07.191Z,73.20
2018-08-28T17:45:36.816Z,73.60
2018-08-28T17:48:05.549Z,73.80
2018-08-28T17:50:34.168Z,73.90
2018-08-28T17:53:02.808Z,74.30
2018-08-28T17:55:31.610Z,74.50
2018-08-28T17:58:00.238Z,75.30
2018-08-28T18:00:28.966Z,75.10
2018-08-28T18:02:57.626Z,75.30
2018-08-28T18:05:26.770Z,75.50
2018-08-28T18:07:55.397Z,75.70
2018-08-28T18:10:24.189Z,75.80
2018-08-28T18:12:53.493Z,76.20
2018-08-28T18:15:22.066Z,76.30
2018-08-28T18:17:52.019Z,76.70
2018-08-28T18:20:20.692Z,76.90
2018-08-28T18:22:49.238Z,77.20
2018-08-28T18:25:17.880Z,77.50
2018-08-28T18:27:46.694Z,77.70
2018-08-28T18:30:15.361Z,78.00
2018-08-28T18:32:44.199Z,78.20
2018-08-28T18:35:13.036Z,78.50
2018-08-28T18:37:41.644Z,78.80
2018-08-28T18:40:10.181Z,79.00
2018-08-28T18:42:38.917Z,79.30
2018-08-28T18:45:07.631Z,79.70
2018-08-28T18:47:36.282Z,79.90
2018-08-28T18:50:05.128Z,80.10
2018-08-28T18:52:34.018Z,80.30
2018-08-28T18:55:02.836Z,80.60
2018-08-28T18:57:31.507Z,80.90
2018-08-28T19:00:00.191Z,81.30
2018-08-28T19:02:28.924Z,81.50
2018-08-28T19:04:57.759Z,81.70
2018-08-28T19:07:26.461Z,82.00
2018-08-28T19:09:55.206Z,82.40
2018-08-28T19:12:23.977Z,82.50
2018-08-28T19:14:52.580Z,82.80
2018-08-28T19:17:21.244Z,82.90
2018-08-28T19:19:49.985Z,83.20
2018-08-28T19:22:18.791Z,83.40
2018-08-28T19:24:47.460Z,83.60
2018-08-28T19:27:16.104Z,84.00
2018-08-28T19:29:45.135Z,84.10
2018-08-28T19:32:13.862Z,84.50
2018-08-28T19:34:43.159Z,84.60
2018-08-28T19:37:11.792Z,84.90
2018-08-28T19:39:40.698Z,85.10
2018-08-28T19:42:09.429Z,85.40
2018-08-28T19:44:37.927Z,85.50
2018-08-28T19:47:06.829Z,86.10
2018-08-28T19:49:35.539Z,86.30
2018-08-28T19:52:04.259Z,86.60
2018-08-28T19:54:32.856Z,87.00
2018-08-28T19:57:01.478Z,87.30
2018-08-28T19:59:30.034Z,87.50
2018-08-28T20:01:58.621Z,87.80
2018-08-28T20:04:27.759Z,88.00
2018-08-28T20:06:57.156Z,88.10
2018-08-28T20:09:25.772Z,88.60
2018-08-28T20:11:55.373Z,89.00
2018-08-28T20:14:24.528Z,89.30
2018-08-28T20:16:53.258Z,89.50
2018-08-28T20:19:26.286Z,89.80
2018-08-28T20:21:54.875Z,90.00
2018-08-28T20:24:23.452Z,90.20
2018-08-28T20:26:52.081Z,90.30
2018-08-28T20:29:20.646Z,90.50
2018-08-28T20:31:49.261Z,90.70
2018-08-28T20:34:17.782Z,90.80
2018-08-28T20:36:46.807Z,90.90
2018-08-28T20:39:15.397Z,91.10
2018-08-28T20:41:45.178Z,91.30
2018-08-28T20:44:13.768Z,91.60
2018-08-28T20:46:43.202Z,91.40
2018-08-28T20:49:11.722Z,91.50
2018-08-28T20:51:40.234Z,91.70
2018-08-28T20:54:08.746Z,91.80
2018-08-28T20:56:37.428Z,91.90
2018-08-28T20:59:06.833Z,92.00
2018-08-28T21:01:35.424Z,92.10
2018-08-28T21:04:04.056Z,92.20
2018-08-28T21:06:32.728Z,92.30
2018-08-28T21:09:01.242Z,92.30
2018-08-28T21:11:30.006Z,92.40
2018-08-28T21:13:59.141Z,92.50
2018-08-28T21:16:27.775Z,92.60
2018-08-28T21:18:56.386Z,92.80
2018-08-28T21:21:25.450Z,92.80
2018-08-28T21:23:53.942Z,92.90
2018-08-28T21:26:22.560Z,93.00
2018-08-28T21:28:51.091Z,93.10
2018-08-28T21:31:19.755Z,93.20
2018-08-28T21:33:48.433Z,93.30
2018-08-28T21:36:16.994Z,93.50
2018-08-28T21:38:45.562Z,93.60
2018-08-28T21:41:15.409Z,93.60
2018-08-28T21:43:43.962Z,93.70
2018-08-28T21:46:12.585Z,93.80
2018-08-28T21:48:41.272Z,93.90
2018-08-28T21:51:09.785Z,94.00
2018-08-28T21:53:38.634Z,94.10
2018-08-28T21:56:09.462Z,94.10
2018-08-28T21:58:38.094Z,94.20
2018-08-28T22:01:11.456Z,94.40
2018-08-28T22:03:41.037Z,94.50
2018-08-28T22:06:14.854Z,94.60
2018-08-28T22:08:43.771Z,94.70
2018-08-28T22:11:12.923Z,94.70
2018-08-28T22:13:41.481Z,94.80
2018-08-28T22:16:10.125Z,94.90
2018-08-28T22:18:38.869Z,95.00
2018-08-28T22:21:07.472Z,95.00
2018-08-28T22:23:36.038Z,95.20
2018-08-28T22:26:05.123Z,95.30
2018-08-28T22:28:33.778Z,95.30
2018-08-28T22:31:02.308Z,95.40
2018-08-28T22:33:30.842Z,95.50
2018-08-28T22:35:59.446Z,95.70
2018-08-28T22:38:28.042Z,95.70
2018-08-28T22:40:56.576Z,95.70
2018-08-28T22:43:25.224Z,95.70
2018-08-28T22:45:53.862Z,95.60
2018-08-28T22:48:22.400Z,95.60
2018-08-28T22:50:50.890Z,95.60
2018-08-28T22:53:19.412Z,95.70
2018-08-28T22:55:47.996Z,95.80
2018-08-28T22:58:16.645Z,95.90
2018-08-28T23:00:45.151Z,95.90
2018-08-28T23:03:13.640Z,96.00
2018-08-28T23:05:42.279Z,96.00
2018-08-28T23:08:10.886Z,96.00
2018-08-28T23:10:39.435Z,96.10
2018-08-28T23:13:08.064Z,96.10
2018-08-28T23:15:36.598Z,96.10
2018-08-28T23:18:05.223Z,96.10
2018-08-28T23:20:33.762Z,96.10
2018-08-28T23:23:02.376Z,96.10
2018-08-28T23:25:30.904Z,96.10
2018-08-28T23:27:59.482Z,96.10
2018-08-28T23:30:28.022Z,96.10
2018-08-28T23:32:56.585Z,96.20
2018-08-28T23:35:25.253Z,96.20
2018-08-28T23:37:57.769Z,96.20
2018-08-28T23:40:26.292Z,96.20
2018-08-28T23:42:54.861Z,96.20
2018-08-28T23:45:23.307Z,96.30
2018-08-28T23:47:51.812Z,96.30
2018-08-28T23:50:21.075Z,96.30
2018-08-28T23:52:49.608Z,96.30
2018-08-28T23:55:18.716Z,96.30
2018-08-28T23:57:47.214Z,96.30
